sensor_id;sensor_type;location;lat;lon;timestamp;temperature;humidity
49184;DHT22;35021;49.214;12.270;2023-09-12T00:00:48;22.60;62.60
49184;DHT22;35021;49.214;12.270;2023-09-12T00:03:19;22.60;62.60
49184;DHT22;35021;49.214;12.270;2023-09-12T00:05:55;22.60;62.50
49184;DHT22;35021;49.214;12.270;2023-09-12T00:08:23;22.60;62.40
49184;DHT22;35021;49.214;12.270;2023-09-12T00:13:30;22.60;62.30
49184;DHT22;35021;49.214;12.270;2023-09-12T00:15:58;22.60;62.30
49184;DHT22;35021;49.214;12.270;2023-09-12T00:18:26;22.70;62.30
49184;DHT22;35021;49.214;12.270;2023-09-12T00:20:53;22.60;62.10
49184;DHT22;35021;49.214;12.270;2023-09-12T00:23:21;22.60;62.00
49184;DHT22;35021;49.214;12.270;2023-09-12T00:25:50;22.60;62.00
49184;DHT22;35021;49.214;12.270;2023-09-12T00:28:19;22.70;62.00
49184;DHT22;35021;49.214;12.270;2023-09-12T00:30:46;22.70;62.00
49184;DHT22;35021;49.214;12.270;2023-09-12T00:33:13;22.60;61.90
49184;DHT22;35021;49.214;12.270;2023-09-12T00:35:40;22.70;61.90
49184;DHT22;35021;49.214;12.270;2023-09-12T00:38:09;22.70;61.80
49184;DHT22;35021;49.214;12.270;2023-09-12T00:40:36;22.70;61.80
49184;DHT22;35021;49.214;12.270;2023-09-12T00:43:04;22.70;61.70
49184;DHT22;35021;49.214;12.270;2023-09-12T00:45:31;22.70;61.60
49184;DHT22;35021;49.214;12.270;2023-09-12T00:47:59;22.70;61.50
49184;DHT22;35021;49.214;12.270;2023-09-12T00:50:28;22.60;61.40
49184;DHT22;35021;49.214;12.270;2023-09-12T00:52:56;22.70;61.50
49184;DHT22;35021;49.214;12.270;2023-09-12T00:55:23;22.70;61.40
49184;DHT22;35021;49.214;12.270;2023-09-12T00:57:51;22.70;61.30
49184;DHT22;35021;49.214;12.270;2023-09-12T01:00:18;22.70;61.30
49184;DHT22;35021;49.214;12.270;2023-09-12T01:02:46;22.70;61.20
49184;DHT22;35021;49.214;12.270;2023-09-12T01:05:14;22.70;61.20
49184;DHT22;35021;49.214;12.270;2023-09-12T01:07:43;22.70;61.10
49184;DHT22;35021;49.214;12.270;2023-09-12T01:10:10;22.70;61.10
49184;DHT22;35021;49.214;12.270;2023-09-12T01:12:39;22.70;61.00
49184;DHT22;35021;49.214;12.270;2023-09-12T01:15:06;22.70;60.90
49184;DHT22;35021;49.214;12.270;2023-09-12T01:17:42;22.70;60.90
49184;DHT22;35021;49.214;12.270;2023-09-12T01:20:14;22.70;60.90
49184;DHT22;35021;49.214;12.270;2023-09-12T01:22:55;22.70;60.90
49184;DHT22;35021;49.214;12.270;2023-09-12T01:25:47;22.70;61.60
49184;DHT22;35021;49.214;12.270;2023-09-12T01:28:20;22.70;60.80
49184;DHT22;35021;49.214;12.270;2023-09-12T01:30:50;22.60;60.70
49184;DHT22;35021;49.214;12.270;2023-09-12T01:33:18;22.70;60.70
49184;DHT22;35021;49.214;12.270;2023-09-12T01:35:46;22.70;60.70
49184;DHT22;35021;49.214;12.270;2023-09-12T01:38:14;22.70;60.70
49184;DHT22;35021;49.214;12.270;2023-09-12T01:43:08;22.70;60.60
49184;DHT22;35021;49.214;12.270;2023-09-12T01:45:35;22.60;60.50
49184;DHT22;35021;49.214;12.270;2023-09-12T01:48:04;22.70;60.50
49184;DHT22;35021;49.214;12.270;2023-09-12T01:50:33;22.70;60.50
49184;DHT22;35021;49.214;12.270;2023-09-12T01:53:01;22.60;60.30
49184;DHT22;35021;49.214;12.270;2023-09-12T01:55:29;22.60;60.30
49184;DHT22;35021;49.214;12.270;2023-09-12T01:57:56;22.60;60.30
49184;DHT22;35021;49.214;12.270;2023-09-12T02:00:24;22.60;60.20
49184;DHT22;35021;49.214;12.270;2023-09-12T02:02:51;22.70;60.30
49184;DHT22;35021;49.214;12.270;2023-09-12T02:05:20;22.70;60.20
49184;DHT22;35021;49.214;12.270;2023-09-12T02:07:48;22.60;60.10
49184;DHT22;35021;49.214;12.270;2023-09-12T02:10:15;22.60;60.10
49184;DHT22;35021;49.214;12.270;2023-09-12T02:12:42;22.70;60.00
49184;DHT22;35021;49.214;12.270;2023-09-12T02:15:09;22.60;60.00
49184;DHT22;35021;49.214;12.270;2023-09-12T02:17:36;22.70;60.00
49184;DHT22;35021;49.214;12.270;2023-09-12T02:20:07;22.70;59.90
49184;DHT22;35021;49.214;12.270;2023-09-12T02:22:34;22.60;59.80
49184;DHT22;35021;49.214;12.270;2023-09-12T02:25:04;22.60;59.80
49184;DHT22;35021;49.214;12.270;2023-09-12T02:27:31;22.70;59.80
49184;DHT22;35021;49.214;12.270;2023-09-12T02:29:58;22.60;59.80
49184;DHT22;35021;49.214;12.270;2023-09-12T02:32:25;22.60;59.80
49184;DHT22;35021;49.214;12.270;2023-09-12T02:34:52;22.50;59.80
49184;DHT22;35021;49.214;12.270;2023-09-12T02:37:20;22.50;59.80
49184;DHT22;35021;49.214;12.270;2023-09-12T02:39:46;22.50;59.80
49184;DHT22;35021;49.214;12.270;2023-09-12T02:42:13;22.50;59.80
49184;DHT22;35021;49.214;12.270;2023-09-12T02:44:40;22.50;59.80
49184;DHT22;35021;49.214;12.270;2023-09-12T02:47:07;22.50;59.90
49184;DHT22;35021;49.214;12.270;2023-09-12T02:49:34;22.40;59.80
49184;DHT22;35021;49.214;12.270;2023-09-12T02:52:01;22.40;59.80
49184;DHT22;35021;49.214;12.270;2023-09-12T02:54:28;22.40;59.90
49184;DHT22;35021;49.214;12.270;2023-09-12T02:56:54;22.40;59.80
49184;DHT22;35021;49.214;12.270;2023-09-12T02:59:21;22.40;59.80
49184;DHT22;35021;49.214;12.270;2023-09-12T03:01:48;22.40;59.80
49184;DHT22;35021;49.214;12.270;2023-09-12T03:04:15;22.40;59.70
49184;DHT22;35021;49.214;12.270;2023-09-12T03:06:42;22.40;59.70
49184;DHT22;35021;49.214;12.270;2023-09-12T03:09:10;22.40;59.60
49184;DHT22;35021;49.214;12.270;2023-09-12T03:11:38;22.40;59.50
49184;DHT22;35021;49.214;12.270;2023-09-12T03:14:05;22.40;60.20
49184;DHT22;35021;49.214;12.270;2023-09-12T03:16:31;22.40;59.40
49184;DHT22;35021;49.214;12.270;2023-09-12T03:18:58;22.40;59.40
49184;DHT22;35021;49.214;12.270;2023-09-12T03:21:28;22.40;59.50
49184;DHT22;35021;49.214;12.270;2023-09-12T03:23:55;22.40;59.60
49184;DHT22;35021;49.214;12.270;2023-09-12T03:26:22;22.30;59.60
49184;DHT22;35021;49.214;12.270;2023-09-12T03:28:49;22.30;59.60
49184;DHT22;35021;49.214;12.270;2023-09-12T03:31:19;22.30;59.60
49184;DHT22;35021;49.214;12.270;2023-09-12T03:33:46;22.30;59.60
49184;DHT22;35021;49.214;12.270;2023-09-12T03:36:16;22.20;59.60
49184;DHT22;35021;49.214;12.270;2023-09-12T03:38:46;22.30;59.60
49184;DHT22;35021;49.214;12.270;2023-09-12T03:41:13;22.20;59.50
49184;DHT22;35021;49.214;12.270;2023-09-12T03:43:40;22.30;59.60
49184;DHT22;35021;49.214;12.270;2023-09-12T03:46:07;22.30;59.60
49184;DHT22;35021;49.214;12.270;2023-09-12T03:48:34;22.20;59.60
49184;DHT22;35021;49.214;12.270;2023-09-12T03:51:03;22.20;59.60
49184;DHT22;35021;49.214;12.270;2023-09-12T03:53:30;22.20;59.60
49184;DHT22;35021;49.214;12.270;2023-09-12T03:55:58;22.20;59.60
49184;DHT22;35021;49.214;12.270;2023-09-12T03:58:25;22.20;59.60
49184;DHT22;35021;49.214;12.270;2023-09-12T04:00:56;22.20;59.60
49184;DHT22;35021;49.214;12.270;2023-09-12T04:03:24;22.20;59.60
49184;DHT22;35021;49.214;12.270;2023-09-12T04:05:59;22.20;59.50
49184;DHT22;35021;49.214;12.270;2023-09-12T04:08:29;22.20;59.50
49184;DHT22;35021;49.214;12.270;2023-09-12T04:11:02;22.20;59.50
49184;DHT22;35021;49.214;12.270;2023-09-12T04:13:29;22.20;59.50
49184;DHT22;35021;49.214;12.270;2023-09-12T04:15:57;22.10;59.40
49184;DHT22;35021;49.214;12.270;2023-09-12T04:18:24;22.20;59.50
49184;DHT22;35021;49.214;12.270;2023-09-12T04:20:52;22.10;59.40
49184;DHT22;35021;49.214;12.270;2023-09-12T04:23:19;22.10;59.40
49184;DHT22;35021;49.214;12.270;2023-09-12T04:25:46;22.10;59.40
49184;DHT22;35021;49.214;12.270;2023-09-12T04:28:13;22.10;59.40
49184;DHT22;35021;49.214;12.270;2023-09-12T04:30:39;22.10;59.40
49184;DHT22;35021;49.214;12.270;2023-09-12T04:33:08;22.10;59.40
49184;DHT22;35021;49.214;12.270;2023-09-12T04:35:35;22.10;59.40
49184;DHT22;35021;49.214;12.270;2023-09-12T04:38:02;22.10;59.40
49184;DHT22;35021;49.214;12.270;2023-09-12T04:40:29;22.10;59.40
49184;DHT22;35021;49.214;12.270;2023-09-12T04:42:56;22.10;59.40
49184;DHT22;35021;49.214;12.270;2023-09-12T04:45:23;22.10;59.30
49184;DHT22;35021;49.214;12.270;2023-09-12T04:50:21;22.10;59.10
49184;DHT22;35021;49.214;12.270;2023-09-12T04:52:48;22.10;59.10
49184;DHT22;35021;49.214;12.270;2023-09-12T04:55:15;22.10;59.10
49184;DHT22;35021;49.214;12.270;2023-09-12T04:57:42;22.10;59.10
49184;DHT22;35021;49.214;12.270;2023-09-12T05:00:09;22.10;59.10
49184;DHT22;35021;49.214;12.270;2023-09-12T05:02:37;22.10;59.00
49184;DHT22;35021;49.214;12.270;2023-09-12T05:05:05;22.10;59.00
49184;DHT22;35021;49.214;12.270;2023-09-12T05:07:32;22.10;59.10
49184;DHT22;35021;49.214;12.270;2023-09-12T05:09:59;22.10;59.00
49184;DHT22;35021;49.214;12.270;2023-09-12T05:12:25;22.10;59.00
49184;DHT22;35021;49.214;12.270;2023-09-12T05:14:53;22.10;59.00
49184;DHT22;35021;49.214;12.270;2023-09-12T05:17:20;22.10;58.90
49184;DHT22;35021;49.214;12.270;2023-09-12T05:19:47;22.10;58.90
49184;DHT22;35021;49.214;12.270;2023-09-12T05:22:14;22.10;58.90
49184;DHT22;35021;49.214;12.270;2023-09-12T05:24:41;22.10;58.90
49184;DHT22;35021;49.214;12.270;2023-09-12T05:27:07;22.10;58.90
49184;DHT22;35021;49.214;12.270;2023-09-12T05:29:34;22.10;58.80
49184;DHT22;35021;49.214;12.270;2023-09-12T05:32:01;22.20;58.90
49184;DHT22;35021;49.214;12.270;2023-09-12T05:34:28;22.10;58.80
49184;DHT22;35021;49.214;12.270;2023-09-12T05:36:56;22.20;58.90
49184;DHT22;35021;49.214;12.270;2023-09-12T05:39:23;22.20;58.80
49184;DHT22;35021;49.214;12.270;2023-09-12T05:41:50;22.20;58.80
49184;DHT22;35021;49.214;12.270;2023-09-12T05:44:17;22.30;58.80
49184;DHT22;35021;49.214;12.270;2023-09-12T05:46:48;22.30;58.80
49184;DHT22;35021;49.214;12.270;2023-09-12T05:49:15;22.30;58.80
49184;DHT22;35021;49.214;12.270;2023-09-12T05:51:42;22.30;58.80
49184;DHT22;35021;49.214;12.270;2023-09-12T05:54:10;22.40;58.80
49184;DHT22;35021;49.214;12.270;2023-09-12T05:56:38;22.40;58.80
49184;DHT22;35021;49.214;12.270;2023-09-12T05:59:05;22.40;58.90
49184;DHT22;35021;49.214;12.270;2023-09-12T06:01:32;22.40;58.90
49184;DHT22;35021;49.214;12.270;2023-09-12T06:03:59;22.40;58.90
49184;DHT22;35021;49.214;12.270;2023-09-12T06:06:26;22.40;58.90
49184;DHT22;35021;49.214;12.270;2023-09-12T06:08:53;22.40;58.90
49184;DHT22;35021;49.214;12.270;2023-09-12T06:11:20;22.50;59.00
49184;DHT22;35021;49.214;12.270;2023-09-12T06:13:47;22.50;59.10
49184;DHT22;35021;49.214;12.270;2023-09-12T06:16:13;22.40;59.10
49184;DHT22;35021;49.214;12.270;2023-09-12T06:18:40;22.50;59.20
49184;DHT22;35021;49.214;12.270;2023-09-12T06:21:08;22.50;59.30
49184;DHT22;35021;49.214;12.270;2023-09-12T06:23:35;22.50;59.30
49184;DHT22;35021;49.214;12.270;2023-09-12T06:26:03;22.50;59.30
49184;DHT22;35021;49.214;12.270;2023-09-12T06:28:31;22.50;59.40
49184;DHT22;35021;49.214;12.270;2023-09-12T06:30:58;22.50;59.40
49184;DHT22;35021;49.214;12.270;2023-09-12T06:33:26;22.50;59.50
49184;DHT22;35021;49.214;12.270;2023-09-12T06:35:53;22.50;59.50
49184;DHT22;35021;49.214;12.270;2023-09-12T06:38:22;22.50;59.60
49184;DHT22;35021;49.214;12.270;2023-09-12T06:40:49;22.50;59.60
49184;DHT22;35021;49.214;12.270;2023-09-12T06:43:16;22.50;59.70
49184;DHT22;35021;49.214;12.270;2023-09-12T06:45:43;22.50;59.80
49184;DHT22;35021;49.214;12.270;2023-09-12T06:48:11;22.50;59.90
49184;DHT22;35021;49.214;12.270;2023-09-12T06:50:38;22.50;60.10
49184;DHT22;35021;49.214;12.270;2023-09-12T06:53:05;22.40;60.10
49184;DHT22;35021;49.214;12.270;2023-09-12T06:55:34;22.40;60.20
49184;DHT22;35021;49.214;12.270;2023-09-12T06:58:01;22.40;60.30
49184;DHT22;35021;49.214;12.270;2023-09-12T07:00:28;22.40;60.50
49184;DHT22;35021;49.214;12.270;2023-09-12T07:02:55;22.40;60.60
49184;DHT22;35021;49.214;12.270;2023-09-12T07:05:22;22.30;60.60
49184;DHT22;35021;49.214;12.270;2023-09-12T07:07:49;22.40;60.90
49184;DHT22;35021;49.214;12.270;2023-09-12T07:10:16;22.30;60.90
49184;DHT22;35021;49.214;12.270;2023-09-12T07:12:52;22.30;61.00
49184;DHT22;35021;49.214;12.270;2023-09-12T07:15:19;22.30;61.10
49184;DHT22;35021;49.214;12.270;2023-09-12T07:17:46;22.30;61.30
49184;DHT22;35021;49.214;12.270;2023-09-12T07:20:14;22.30;61.40
49184;DHT22;35021;49.214;12.270;2023-09-12T07:22:42;22.30;61.40
49184;DHT22;35021;49.214;12.270;2023-09-12T07:25:09;22.30;61.50
49184;DHT22;35021;49.214;12.270;2023-09-12T07:27:38;22.30;61.60
49184;DHT22;35021;49.214;12.270;2023-09-12T07:30:06;22.30;61.70
49184;DHT22;35021;49.214;12.270;2023-09-12T07:32:34;22.30;61.70
49184;DHT22;35021;49.214;12.270;2023-09-12T07:35:01;22.30;61.80
49184;DHT22;35021;49.214;12.270;2023-09-12T07:37:28;22.30;61.90
49184;DHT22;35021;49.214;12.270;2023-09-12T07:39:55;22.30;62.10
49184;DHT22;35021;49.214;12.270;2023-09-12T07:42:23;22.30;62.20
49184;DHT22;35021;49.214;12.270;2023-09-12T07:44:50;22.30;62.40
49184;DHT22;35021;49.214;12.270;2023-09-12T07:47:18;22.30;62.50
49184;DHT22;35021;49.214;12.270;2023-09-12T07:49:45;22.30;62.60
49184;DHT22;35021;49.214;12.270;2023-09-12T07:52:12;22.30;62.60
49184;DHT22;35021;49.214;12.270;2023-09-12T07:54:39;22.20;62.70
49184;DHT22;35021;49.214;12.270;2023-09-12T07:57:06;22.30;62.80
49184;DHT22;35021;49.214;12.270;2023-09-12T07:59:33;22.30;62.90
49184;DHT22;35021;49.214;12.270;2023-09-12T08:02:00;22.30;63.10
49184;DHT22;35021;49.214;12.270;2023-09-12T08:04:28;22.30;63.10
49184;DHT22;35021;49.214;12.270;2023-09-12T08:06:55;22.20;63.10
49184;DHT22;35021;49.214;12.270;2023-09-12T08:09:36;22.20;63.30
49184;DHT22;35021;49.214;12.270;2023-09-12T08:12:11;22.20;63.40
49184;DHT22;35021;49.214;12.270;2023-09-12T08:14:38;22.20;63.50
49184;DHT22;35021;49.214;12.270;2023-09-12T08:17:05;22.20;63.50
49184;DHT22;35021;49.214;12.270;2023-09-12T08:19:33;22.20;63.70
49184;DHT22;35021;49.214;12.270;2023-09-12T08:22:00;22.20;63.90
49184;DHT22;35021;49.214;12.270;2023-09-12T08:24:27;22.20;64.00
49184;DHT22;35021;49.214;12.270;2023-09-12T08:26:54;22.20;64.10
49184;DHT22;35021;49.214;12.270;2023-09-12T08:29:21;22.20;64.20
49184;DHT22;35021;49.214;12.270;2023-09-12T08:31:48;22.20;64.30
49184;DHT22;35021;49.214;12.270;2023-09-12T08:34:15;22.20;64.40
49184;DHT22;35021;49.214;12.270;2023-09-12T08:36:42;22.20;64.40
49184;DHT22;35021;49.214;12.270;2023-09-12T08:39:12;22.20;64.40
49184;DHT22;35021;49.214;12.270;2023-09-12T08:41:39;22.20;64.40
49184;DHT22;35021;49.214;12.270;2023-09-12T08:44:07;22.30;64.40
49184;DHT22;35021;49.214;12.270;2023-09-12T08:46:34;22.20;64.40
49184;DHT22;35021;49.214;12.270;2023-09-12T08:49:01;22.30;64.40
49184;DHT22;35021;49.214;12.270;2023-09-12T08:51:29;22.30;64.40
49184;DHT22;35021;49.214;12.270;2023-09-12T08:53:56;22.30;64.30
49184;DHT22;35021;49.214;12.270;2023-09-12T08:56:23;22.30;64.20
49184;DHT22;35021;49.214;12.270;2023-09-12T08:58:51;22.30;64.10
49184;DHT22;35021;49.214;12.270;2023-09-12T09:01:19;22.40;64.80
49184;DHT22;35021;49.214;12.270;2023-09-12T09:03:47;22.40;64.10
49184;DHT22;35021;49.214;12.270;2023-09-12T09:06:16;22.40;64.10
49184;DHT22;35021;49.214;12.270;2023-09-12T09:08:44;22.40;64.20
49184;DHT22;35021;49.214;12.270;2023-09-12T09:11:11;22.40;64.30
49184;DHT22;35021;49.214;12.270;2023-09-12T09:13:38;22.30;64.30
49184;DHT22;35021;49.214;12.270;2023-09-12T09:16:19;22.40;64.50
49184;DHT22;35021;49.214;12.270;2023-09-12T09:19:05;22.30;64.50
49184;DHT22;35021;49.214;12.270;2023-09-12T09:21:37;22.30;64.50
49184;DHT22;35021;49.214;12.270;2023-09-12T09:24:08;22.30;64.50
49184;DHT22;35021;49.214;12.270;2023-09-12T09:29:10;22.30;64.50
49184;DHT22;35021;49.214;12.270;2023-09-12T09:31:41;22.30;64.50
49184;DHT22;35021;49.214;12.270;2023-09-12T09:34:16;22.30;64.70
49184;DHT22;35021;49.214;12.270;2023-09-12T09:36:46;22.30;64.50
49184;DHT22;35021;49.214;12.270;2023-09-12T09:39:14;22.30;64.60
49184;DHT22;35021;49.214;12.270;2023-09-12T09:41:41;22.30;64.40
49184;DHT22;35021;49.214;12.270;2023-09-12T09:44:09;22.30;64.40
49184;DHT22;35021;49.214;12.270;2023-09-12T09:46:37;22.30;64.40
49184;DHT22;35021;49.214;12.270;2023-09-12T09:49:04;22.30;64.50
49184;DHT22;35021;49.214;12.270;2023-09-12T09:51:33;22.40;64.30
49184;DHT22;35021;49.214;12.270;2023-09-12T09:54:07;22.30;64.30
49184;DHT22;35021;49.214;12.270;2023-09-12T09:56:45;22.40;64.20
49184;DHT22;35021;49.214;12.270;2023-09-12T09:59:18;22.40;64.10
49184;DHT22;35021;49.214;12.270;2023-09-12T10:01:45;22.50;63.90
49184;DHT22;35021;49.214;12.270;2023-09-12T10:04:12;22.50;63.70
49184;DHT22;35021;49.214;12.270;2023-09-12T10:06:44;22.50;63.50
49184;DHT22;35021;49.214;12.270;2023-09-12T10:09:13;22.60;63.50
49184;DHT22;35021;49.214;12.270;2023-09-12T10:11:42;22.60;63.20
49184;DHT22;35021;49.214;12.270;2023-09-12T10:14:11;22.60;63.10
49184;DHT22;35021;49.214;12.270;2023-09-12T10:16:45;22.60;63.00
49184;DHT22;35021;49.214;12.270;2023-09-12T10:19:17;22.60;62.90
49184;DHT22;35021;49.214;12.270;2023-09-12T10:22:02;22.70;62.90
49184;DHT22;35021;49.214;12.270;2023-09-12T10:24:35;22.70;62.70
49184;DHT22;35021;49.214;12.270;2023-09-12T10:27:03;22.70;62.70
49184;DHT22;35021;49.214;12.270;2023-09-12T10:29:31;22.70;62.70
49184;DHT22;35021;49.214;12.270;2023-09-12T10:31:58;22.70;62.70
49184;DHT22;35021;49.214;12.270;2023-09-12T10:34:26;22.70;62.70
49184;DHT22;35021;49.214;12.270;2023-09-12T10:36:55;22.70;62.60
49184;DHT22;35021;49.214;12.270;2023-09-12T10:39:27;22.70;62.50
49184;DHT22;35021;49.214;12.270;2023-09-12T10:41:55;22.70;62.40
49184;DHT22;35021;49.214;12.270;2023-09-12T10:44:24;22.70;62.40
49184;DHT22;35021;49.214;12.270;2023-09-12T10:46:52;22.80;62.30
49184;DHT22;35021;49.214;12.270;2023-09-12T10:49:22;22.80;62.20
49184;DHT22;35021;49.214;12.270;2023-09-12T10:51:53;22.80;62.10
49184;DHT22;35021;49.214;12.270;2023-09-12T10:54:25;22.80;62.10
49184;DHT22;35021;49.214;12.270;2023-09-12T10:57:03;22.80;61.90
49184;DHT22;35021;49.214;12.270;2023-09-12T10:59:30;22.90;61.90
49184;DHT22;35021;49.214;12.270;2023-09-12T11:04:54;22.90;61.70
49184;DHT22;35021;49.214;12.270;2023-09-12T11:07:44;22.90;61.50
49184;DHT22;35021;49.214;12.270;2023-09-12T11:10:20;22.90;61.50
49184;DHT22;35021;49.214;12.270;2023-09-12T11:12:55;22.90;61.50
49184;DHT22;35021;49.214;12.270;2023-09-12T11:15:24;22.90;61.40
49184;DHT22;35021;49.214;12.270;2023-09-12T11:18:03;22.90;61.40
49184;DHT22;35021;49.214;12.270;2023-09-12T11:21:00;22.90;61.40
49184;DHT22;35021;49.214;12.270;2023-09-12T11:23:30;22.90;62.10
49184;DHT22;35021;49.214;12.270;2023-09-12T11:26:05;22.90;61.40
49184;DHT22;35021;49.214;12.270;2023-09-12T11:28:33;22.90;61.40
49184;DHT22;35021;49.214;12.270;2023-09-12T11:31:00;22.90;61.30
49184;DHT22;35021;49.214;12.270;2023-09-12T11:33:27;22.90;61.30
49184;DHT22;35021;49.214;12.270;2023-09-12T11:35:55;23.00;61.30
49184;DHT22;35021;49.214;12.270;2023-09-12T11:38:31;23.00;61.20
49184;DHT22;35021;49.214;12.270;2023-09-12T11:40:59;23.00;61.10
49184;DHT22;35021;49.214;12.270;2023-09-12T11:43:30;23.00;61.10
49184;DHT22;35021;49.214;12.270;2023-09-12T11:45:57;23.10;61.10
49184;DHT22;35021;49.214;12.270;2023-09-12T11:48:24;23.10;61.00
49184;DHT22;35021;49.214;12.270;2023-09-12T11:50:56;23.10;60.90
49184;DHT22;35021;49.214;12.270;2023-09-12T11:53:28;23.10;60.90
49184;DHT22;35021;49.214;12.270;2023-09-12T11:55:58;23.10;60.80
49184;DHT22;35021;49.214;12.270;2023-09-12T11:58:26;23.20;60.80
49184;DHT22;35021;49.214;12.270;2023-09-12T12:00:58;23.10;60.60
49184;DHT22;35021;49.214;12.270;2023-09-12T12:03:27;23.20;60.70
49184;DHT22;35021;49.214;12.270;2023-09-12T12:05:55;23.20;60.60
49184;DHT22;35021;49.214;12.270;2023-09-12T12:08:23;23.20;60.50
49184;DHT22;35021;49.214;12.270;2023-09-12T12:10:53;23.20;60.50
49184;DHT22;35021;49.214;12.270;2023-09-12T12:13:22;23.20;60.50
49184;DHT22;35021;49.214;12.270;2023-09-12T12:15:50;23.20;60.50
49184;DHT22;35021;49.214;12.270;2023-09-12T12:18:19;23.20;60.40
49184;DHT22;35021;49.214;12.270;2023-09-12T12:20:46;23.20;60.40
49184;DHT22;35021;49.214;12.270;2023-09-12T12:23:13;23.30;60.50
49184;DHT22;35021;49.214;12.270;2023-09-12T12:25:40;23.30;60.40
49184;DHT22;35021;49.214;12.270;2023-09-12T12:28:07;23.30;60.40
49184;DHT22;35021;49.214;12.270;2023-09-12T12:30:35;23.30;60.30
49184;DHT22;35021;49.214;12.270;2023-09-12T12:33:07;23.30;60.30
49184;DHT22;35021;49.214;12.270;2023-09-12T12:36:02;23.30;60.40
49184;DHT22;35021;49.214;12.270;2023-09-12T12:38:37;23.30;60.40
49184;DHT22;35021;49.214;12.270;2023-09-12T12:41:10;23.20;60.40
49184;DHT22;35021;49.214;12.270;2023-09-12T12:43:42;23.20;60.40
49184;DHT22;35021;49.214;12.270;2023-09-12T12:46:12;23.20;60.50
49184;DHT22;35021;49.214;12.270;2023-09-12T12:48:43;23.20;60.70
49184;DHT22;35021;49.214;12.270;2023-09-12T12:51:15;23.20;60.70
49184;DHT22;35021;49.214;12.270;2023-09-12T12:53:50;23.20;60.70
49184;DHT22;35021;49.214;12.270;2023-09-12T12:56:27;23.20;60.80
49184;DHT22;35021;49.214;12.270;2023-09-12T12:58:59;23.20;60.90
49184;DHT22;35021;49.214;12.270;2023-09-12T13:01:30;23.20;60.90
49184;DHT22;35021;49.214;12.270;2023-09-12T13:03:57;23.20;60.80
49184;DHT22;35021;49.214;12.270;2023-09-12T13:06:24;23.20;60.80
49184;DHT22;35021;49.214;12.270;2023-09-12T13:08:52;23.20;60.70
49184;DHT22;35021;49.214;12.270;2023-09-12T13:11:19;23.20;60.70
49184;DHT22;35021;49.214;12.270;2023-09-12T13:13:48;23.20;60.70
49184;DHT22;35021;49.214;12.270;2023-09-12T13:16:18;23.20;60.70
49184;DHT22;35021;49.214;12.270;2023-09-12T13:18:45;23.20;60.70
49184;DHT22;35021;49.214;12.270;2023-09-12T13:21:12;23.20;60.60
49184;DHT22;35021;49.214;12.270;2023-09-12T13:23:39;23.30;60.60
49184;DHT22;35021;49.214;12.270;2023-09-12T13:26:08;23.30;60.50
49184;DHT22;35021;49.214;12.270;2023-09-12T13:28:36;23.40;60.60
49184;DHT22;35021;49.214;12.270;2023-09-12T13:31:03;23.30;60.50
49184;DHT22;35021;49.214;12.270;2023-09-12T13:33:31;23.30;60.40
49184;DHT22;35021;49.214;12.270;2023-09-12T13:35:58;23.40;60.40
49184;DHT22;35021;49.214;12.270;2023-09-12T13:38:25;23.40;60.40
49184;DHT22;35021;49.214;12.270;2023-09-12T13:40:52;23.40;60.30
49184;DHT22;35021;49.214;12.270;2023-09-12T13:43:19;23.40;60.30
49184;DHT22;35021;49.214;12.270;2023-09-12T13:45:46;23.40;60.30
49184;DHT22;35021;49.214;12.270;2023-09-12T13:48:13;23.40;60.30
49184;DHT22;35021;49.214;12.270;2023-09-12T13:50:41;23.40;60.20
49184;DHT22;35021;49.214;12.270;2023-09-12T13:53:10;23.40;60.30
49184;DHT22;35021;49.214;12.270;2023-09-12T13:55:37;23.40;60.30
49184;DHT22;35021;49.214;12.270;2023-09-12T13:58:24;23.40;60.30
49184;DHT22;35021;49.214;12.270;2023-09-12T14:00:58;23.50;60.30
49184;DHT22;35021;49.214;12.270;2023-09-12T14:03:25;23.50;60.30
49184;DHT22;35021;49.214;12.270;2023-09-12T14:05:55;23.50;60.30
49184;DHT22;35021;49.214;12.270;2023-09-12T14:08:23;23.50;60.20
49184;DHT22;35021;49.214;12.270;2023-09-12T14:10:50;23.50;60.20
49184;DHT22;35021;49.214;12.270;2023-09-12T14:13:17;23.50;60.20
49184;DHT22;35021;49.214;12.270;2023-09-12T14:15:48;23.50;60.20
49184;DHT22;35021;49.214;12.270;2023-09-12T14:18:17;23.50;60.20
49184;DHT22;35021;49.214;12.270;2023-09-12T14:20:46;23.50;60.20
49184;DHT22;35021;49.214;12.270;2023-09-12T14:23:15;23.50;60.10
49184;DHT22;35021;49.214;12.270;2023-09-12T14:25:42;23.50;60.10
49184;DHT22;35021;49.214;12.270;2023-09-12T14:28:09;23.50;60.10
49184;DHT22;35021;49.214;12.270;2023-09-12T14:30:38;23.60;60.10
49184;DHT22;35021;49.214;12.270;2023-09-12T14:33:10;23.60;60.00
49184;DHT22;35021;49.214;12.270;2023-09-12T14:35:41;23.60;60.10
49184;DHT22;35021;49.214;12.270;2023-09-12T14:38:08;23.60;60.10
49184;DHT22;35021;49.214;12.270;2023-09-12T14:40:35;23.60;60.10
49184;DHT22;35021;49.214;12.270;2023-09-12T14:43:02;23.60;60.10
49184;DHT22;35021;49.214;12.270;2023-09-12T14:45:29;23.60;60.20
49184;DHT22;35021;49.214;12.270;2023-09-12T14:47:57;23.60;60.20
49184;DHT22;35021;49.214;12.270;2023-09-12T14:50:24;23.60;60.10
49184;DHT22;35021;49.214;12.270;2023-09-12T14:53:06;23.60;60.20
49184;DHT22;35021;49.214;12.270;2023-09-12T14:55:33;23.70;60.30
49184;DHT22;35021;49.214;12.270;2023-09-12T14:58:00;23.70;60.20
49184;DHT22;35021;49.214;12.270;2023-09-12T15:00:27;23.70;60.20
49184;DHT22;35021;49.214;12.270;2023-09-12T15:02:55;23.70;60.20
49184;DHT22;35021;49.214;12.270;2023-09-12T15:05:21;23.70;60.30
49184;DHT22;35021;49.214;12.270;2023-09-12T15:07:48;23.60;60.30
49184;DHT22;35021;49.214;12.270;2023-09-12T15:10:17;23.60;60.40
49184;DHT22;35021;49.214;12.270;2023-09-12T15:12:44;23.50;60.60
49184;DHT22;35021;49.214;12.270;2023-09-12T15:15:11;23.50;60.70
49184;DHT22;35021;49.214;12.270;2023-09-12T15:17:38;23.50;60.80
49184;DHT22;35021;49.214;12.270;2023-09-12T15:20:05;23.50;60.90
49184;DHT22;35021;49.214;12.270;2023-09-12T15:22:32;23.50;60.90
49184;DHT22;35021;49.214;12.270;2023-09-12T15:25:01;23.50;61.00
49184;DHT22;35021;49.214;12.270;2023-09-12T15:27:29;23.50;61.00
49184;DHT22;35021;49.214;12.270;2023-09-12T15:29:56;23.50;61.00
49184;DHT22;35021;49.214;12.270;2023-09-12T15:32:22;23.50;61.00
49184;DHT22;35021;49.214;12.270;2023-09-12T15:34:49;23.50;61.00
49184;DHT22;35021;49.214;12.270;2023-09-12T15:37:16;23.50;61.00